Time;durP1;ratioP1;P1;durP2;ratioP2;P2;SDS_P1;SDS_P2;PMS_P1;PMS_P2;Temp;Humidity;BMP_temperature;BMP_pressure;BME280_temperature;BME280_humidity;BME280_pressure;Samples;Min_cycle;Max_cycle;Signal;HPM_P1;HPM_P2
2021/12/27 00:00:10;;;;;;;39.33;36.47;;;7.80;99.90;;;;;;5031362;28;20456;-75
2021/12/27 00:02:37;;;;;;;41.27;38.27;;;7.90;99.90;;;;;;5030650;28;21028;-76
2021/12/27 00:05:04;;;;;;;42.40;39.10;;;7.90;99.90;;;;;;5031343;28;20470;-74
2021/12/27 00:07:31;;;;;;;42.23;38.80;;;7.90;99.90;;;;;;5031030;28;20449;-75
2021/12/27 00:10:00;;;;;;;41.53;38.50;;;7.90;99.90;;;;;;5030764;28;20464;-75
2021/12/27 00:12:26;;;;;;;41.10;37.97;;;7.90;99.90;;;;;;5030793;28;20449;-75
2021/12/27 00:14:54;;;;;;;42.73;39.37;;;7.80;99.90;;;;;;5030680;28;20864;-75
2021/12/27 00:17:21;;;;;;;41.40;38.50;;;7.80;99.90;;;;;;5030821;28;20452;-78
2021/12/27 00:19:48;;;;;;;39.40;36.27;;;7.90;99.90;;;;;;5030848;28;20461;-79
2021/12/27 00:22:14;;;;;;;41.37;37.97;;;7.80;99.90;;;;;;5030808;28;20899;-78
2021/12/27 00:24:46;;;;;;;40.50;37.70;;;7.80;99.90;;;;;;5030645;28;20958;-76
2021/12/27 00:27:13;;;;;;;42.50;39.43;;;7.70;99.90;;;;;;5030310;28;20460;-76
2021/12/27 00:29:40;;;;;;;43.33;39.57;;;7.70;99.90;;;;;;5030551;28;20452;-75
2021/12/27 00:32:09;;;;;;;40.60;37.53;;;7.70;99.90;;;;;;5030671;28;20464;-76
2021/12/27 00:34:37;;;;;;;41.67;38.57;;;7.70;99.90;;;;;;5030890;28;20862;-76
2021/12/27 00:37:04;;;;;;;42.40;38.70;;;7.80;99.90;;;;;;5030358;28;20548;-77
2021/12/27 00:39:30;;;;;;;41.47;38.57;;;7.90;99.90;;;;;;5030506;28;20965;-78
2021/12/27 00:41:57;;;;;;;41.07;38.07;;;8.00;99.90;;;;;;5030470;28;20492;-77
2021/12/27 00:44:24;;;;;;;42.37;39.07;;;8.10;99.90;;;;;;5030458;28;20452;-77
2021/12/27 00:46:50;;;;;;;40.33;37.37;;;7.90;99.90;;;;;;5030393;28;20908;-77
2021/12/27 00:49:18;;;;;;;41.83;38.73;;;7.90;99.90;;;;;;5030697;28;20453;-78
2021/12/27 00:51:45;;;;;;;42.00;38.73;;;7.90;99.90;;;;;;5030365;28;20498;-78
2021/12/27 00:54:12;;;;;;;42.83;39.53;;;7.90;99.90;;;;;;5030425;28;20943;-78
2021/12/27 00:56:39;;;;;;;41.40;38.00;;;7.90;99.90;;;;;;5030383;28;20452;-77
2021/12/27 00:59:06;;;;;;;41.30;38.30;;;8.00;99.90;;;;;;5030502;28;20449;-80
2021/12/27 01:01:33;;;;;;;39.57;36.87;;;8.00;99.90;;;;;;5030479;28;20457;-78
2021/12/27 01:04:00;;;;;;;40.93;38.00;;;8.00;99.90;;;;;;5032942;28;20455;-78
2021/12/27 01:06:28;;;;;;;40.80;37.70;;;8.00;99.90;;;;;;5034115;28;20452;-77
2021/12/27 01:08:55;;;;;;;40.33;37.37;;;8.10;99.90;;;;;;5034311;28;20448;-77
2021/12/27 01:11:27;;;;;;;39.40;36.50;;;8.00;99.90;;;;;;5034416;28;20456;-80
2021/12/27 01:14:03;;;;;;;38.27;35.67;;;8.20;99.90;;;;;;5034604;28;20552;-86
2021/12/27 01:16:31;;;;;;;37.07;34.70;;;8.20;99.90;;;;;;5034816;28;20510;-88
2021/12/27 01:18:58;;;;;;;38.80;36.17;;;8.20;99.90;;;;;;5034374;28;20506;-83
2021/12/27 01:21:25;;;;;;;39.53;36.93;;;8.10;99.90;;;;;;5034313;28;20844;-83
2021/12/27 01:23:55;;;;;;;39.13;36.37;;;8.10;99.90;;;;;;5034252;28;20456;-81
2021/12/27 01:26:22;;;;;;;37.27;34.77;;;8.10;99.90;;;;;;5034267;28;20455;-83
2021/12/27 01:28:49;;;;;;;39.80;36.90;;;8.00;99.90;;;;;;5034378;28;20510;-83
2021/12/27 01:31:16;;;;;;;39.90;37.10;;;8.00;99.90;;;;;;5034553;28;20448;-83
2021/12/27 01:33:44;;;;;;;38.63;35.70;;;7.90;99.90;;;;;;5033999;28;20441;-83
2021/12/27 01:36:11;;;;;;;38.90;36.03;;;7.90;99.90;;;;;;5034290;28;20476;-84
2021/12/27 01:38:39;;;;;;;39.73;36.87;;;7.90;99.90;;;;;;5034193;28;20794;-83
2021/12/27 01:41:09;;;;;;;39.37;36.40;;;7.80;99.90;;;;;;5034034;28;20475;-84
2021/12/27 01:43:38;;;;;;;38.13;35.47;;;7.80;99.90;;;;;;5034386;28;20550;-82
2021/12/27 01:46:08;;;;;;;38.33;35.83;;;7.80;99.90;;;;;;5034075;28;20954;-86
2021/12/27 01:48:38;;;;;;;36.97;34.47;;;7.80;99.90;;;;;;5034212;28;20485;-87
2021/12/27 01:51:07;;;;;;;39.20;36.17;;;7.80;99.90;;;;;;5034992;28;20930;-86
2021/12/27 01:53:36;;;;;;;39.67;36.60;;;7.80;99.90;;;;;;5034545;28;20483;-85
2021/12/27 01:56:05;;;;;;;39.17;36.37;;;7.80;99.90;;;;;;5034118;28;20462;-84
2021/12/27 01:58:34;;;;;;;38.77;35.93;;;7.80;99.90;;;;;;5033943;28;20457;-84
2021/12/27 02:01:02;;;;;;;40.07;37.10;;;7.70;99.90;;;;;;5033888;28;20456;-84
2021/12/27 02:03:30;;;;;;;39.30;36.20;;;7.70;99.90;;;;;;5033596;28;20491;-84
2021/12/27 02:05:58;;;;;;;40.77;37.80;;;7.70;99.90;;;;;;5033987;28;20480;-84
2021/12/27 02:08:25;;;;;;;37.40;34.70;;;7.70;99.90;;;;;;5033387;28;20643;-84
2021/12/27 02:10:52;;;;;;;38.60;35.83;;;7.80;99.90;;;;;;5034925;28;20507;-84
2021/12/27 02:13:20;;;;;;;38.33;35.23;;;7.80;99.90;;;;;;5047754;28;20504;-85
2021/12/27 02:15:48;;;;;;;38.23;35.60;;;7.80;99.90;;;;;;5041577;28;20441;-85
2021/12/27 02:18:15;;;;;;;38.00;35.17;;;7.70;99.90;;;;;;5033721;28;20453;-86
2021/12/27 02:20:44;;;;;;;36.20;33.60;;;7.80;99.90;;;;;;5034064;28;20453;-87
2021/12/27 02:23:15;;;;;;;37.30;34.70;;;7.80;99.90;;;;;;5033971;28;21039;-89
2021/12/27 02:25:44;;;;;;;33.97;31.70;;;7.80;99.90;;;;;;5034432;28;20459;-88
2021/12/27 02:28:12;;;;;;;35.90;33.50;;;7.80;99.90;;;;;;5033998;28;20456;-89
2021/12/27 02:30:41;;;;;;;34.07;31.97;;;7.80;99.90;;;;;;5034051;28;20449;-87
2021/12/27 02:33:08;;;;;;;35.70;33.20;;;7.80;99.90;;;;;;5033820;28;20813;-86
2021/12/27 02:35:38;;;;;;;33.63;31.43;;;7.80;99.90;;;;;;5033436;28;20522;-87
2021/12/27 02:38:08;;;;;;;33.60;31.40;;;7.80;99.90;;;;;;5035098;28;20477;-86
2021/12/27 02:40:35;;;;;;;33.47;31.37;;;7.80;99.90;;;;;;5034199;28;20532;-85
2021/12/27 02:43:05;;;;;;;34.77;32.27;;;7.80;99.90;;;;;;5033619;28;20532;-85
2021/12/27 02:45:33;;;;;;;35.93;33.43;;;7.70;99.90;;;;;;5033467;28;20464;-85
2021/12/27 02:48:00;;;;;;;34.50;32.10;;;7.60;99.90;;;;;;5032974;28;20484;-85
2021/12/27 02:50:28;;;;;;;34.30;32.00;;;7.60;99.90;;;;;;5032718;28;20977;-85
2021/12/27 02:52:55;;;;;;;34.97;32.53;;;7.50;99.90;;;;;;5033183;28;20455;-84
2021/12/27 02:55:24;;;;;;;34.13;31.80;;;7.50;99.90;;;;;;5032665;28;20452;-83
2021/12/27 02:57:51;;;;;;;35.97;33.03;;;7.40;99.90;;;;;;5032692;28;20547;-83
2021/12/27 03:00:20;;;;;;;36.93;34.10;;;7.40;99.90;;;;;;5032920;28;20473;-82
2021/12/27 03:02:49;;;;;;;34.93;32.43;;;7.40;99.90;;;;;;5033409;28;20836;-84
2021/12/27 03:05:17;;;;;;;36.27;33.47;;;7.40;99.90;;;;;;5032990;28;20452;-83
2021/12/27 03:07:46;;;;;;;36.10;33.03;;;7.30;99.90;;;;;;5033015;28;20814;-83
2021/12/27 03:10:15;;;;;;;35.50;32.80;;;7.30;99.90;;;;;;5032588;28;20449;-83
2021/12/27 03:12:44;;;;;;;34.77;32.03;;;7.30;99.90;;;;;;5032611;28;20983;-84
2021/12/27 03:15:12;;;;;;;33.60;31.00;;;7.30;99.90;;;;;;5032194;28;20459;-79
2021/12/27 03:17:39;;;;;;;33.80;31.30;;;7.30;99.90;;;;;;5031942;28;20467;-79
2021/12/27 03:20:08;;;;;;;34.00;31.50;;;7.30;99.90;;;;;;5031982;28;20465;-79
2021/12/27 03:22:37;;;;;;;34.90;32.10;;;7.30;99.90;;;;;;5032170;28;20494;-78
2021/12/27 03:25:06;;;;;;;33.43;30.90;;;7.20;99.90;;;;;;5031959;28;20461;-78
2021/12/27 03:27:32;;;;;;;33.07;30.67;;;7.30;99.90;;;;;;5031867;28;20977;-79
2021/12/27 03:30:01;;;;;;;32.70;30.17;;;7.30;99.90;;;;;;5032008;28;20463;-79
2021/12/27 03:32:27;;;;;;;32.40;29.97;;;7.30;99.90;;;;;;5031655;28;20460;-79
2021/12/27 03:34:57;;;;;;;32.70;29.93;;;7.30;99.90;;;;;;5031369;28;20472;-78
2021/12/27 03:37:25;;;;;;;32.43;29.80;;;7.30;99.90;;;;;;5031705;28;20453;-78
2021/12/27 03:39:51;;;;;;;29.87;27.80;;;7.30;99.90;;;;;;5031660;28;20452;-78
2021/12/27 03:42:19;;;;;;;30.57;28.47;;;7.30;99.90;;;;;;5031501;28;20460;-78
2021/12/27 03:44:46;;;;;;;30.90;28.50;;;7.30;99.90;;;;;;5031461;28;20460;-78
2021/12/27 03:47:15;;;;;;;29.43;27.40;;;7.40;99.90;;;;;;5031205;28;20896;-78
2021/12/27 03:49:41;;;;;;;28.33;26.23;;;7.40;99.90;;;;;;5044145;28;20529;-78
2021/12/27 03:52:08;;;;;;;29.13;26.87;;;7.50;99.90;;;;;;5038829;28;20931;-79
2021/12/27 03:54:35;;;;;;;27.53;25.63;;;7.60;99.90;;;;;;5032346;28;20452;-78
2021/12/27 03:57:02;;;;;;;27.50;25.60;;;7.60;99.90;;;;;;5031438;28;20466;-79
2021/12/27 03:59:48;;;;;;;28.90;26.80;;;7.60;99.90;;;;;;5031135;28;20461;-80
2021/12/27 04:02:17;;;;;;;28.37;26.17;;;7.70;99.90;;;;;;5031112;28;20964;-81
2021/12/27 04:04:44;;;;;;;26.10;24.27;;;7.60;99.90;;;;;;5031566;28;20460;-80
2021/12/27 04:07:12;;;;;;;24.50;22.90;;;7.60;99.90;;;;;;5032394;28;20565;-88
2021/12/27 04:09:39;;;;;;;23.40;21.90;;;7.70;99.90;;;;;;5032421;28;20459;-85
2021/12/27 04:12:07;;;;;;;23.87;22.27;;;7.70;99.90;;;;;;5032066;28;20456;-84
2021/12/27 04:14:33;;;;;;;24.93;23.30;;;7.70;99.90;;;;;;5032018;28;20969;-85
2021/12/27 04:17:00;;;;;;;25.70;23.90;;;7.80;99.90;;;;;;5032031;28;20448;-84
2021/12/27 04:19:28;;;;;;;25.23;23.60;;;7.70;99.90;;;;;;5031256;28;20456;-81
2021/12/27 04:21:55;;;;;;;25.63;23.93;;;7.70;99.90;;;;;;5030962;28;20947;-81
2021/12/27 04:24:21;;;;;;;26.50;24.70;;;7.60;99.90;;;;;;5030948;28;20522;-80
2021/12/27 04:26:48;;;;;;;23.83;22.13;;;7.50;99.90;;;;;;5031253;28;20453;-81
2021/12/27 04:29:15;;;;;;;25.30;23.40;;;7.50;99.90;;;;;;5031222;28;20451;-82
2021/12/27 04:31:41;;;;;;;25.83;23.97;;;7.50;99.90;;;;;;5030500;28;20464;-81
2021/12/27 04:34:08;;;;;;;26.53;24.53;;;7.40;99.90;;;;;;5030741;28;20448;-82
2021/12/27 04:36:36;;;;;;;24.73;22.67;;;7.40;99.90;;;;;;5031338;28;20482;-82
2021/12/27 04:39:04;;;;;;;23.83;22.13;;;7.40;99.90;;;;;;5031051;28;20946;-81
2021/12/27 04:41:32;;;;;;;27.43;25.20;;;7.40;99.90;;;;;;5030892;28;20994;-80
2021/12/27 04:43:58;;;;;;;25.40;23.70;;;7.50;99.90;;;;;;5030675;28;20545;-83
2021/12/27 04:46:25;;;;;;;26.50;24.67;;;7.50;99.90;;;;;;5030661;28;20453;-81
2021/12/27 04:48:52;;;;;;;25.77;23.93;;;7.50;99.90;;;;;;5030378;28;21021;-81
2021/12/27 04:51:20;;;;;;;25.90;24.00;;;7.50;99.90;;;;;;5030621;28;20451;-80
2021/12/27 04:53:48;;;;;;;25.37;23.13;;;7.50;99.90;;;;;;5030808;28;20515;-82
2021/12/27 04:56:15;;;;;;;25.10;23.50;;;7.50;99.90;;;;;;5030258;28;20457;-79
2021/12/27 04:58:44;;;;;;;24.60;22.90;;;7.60;99.90;;;;;;5030965;28;20586;-85
2021/12/27 05:01:11;;;;;;;25.47;23.67;;;7.60;99.90;;;;;;5030776;28;20890;-81
2021/12/27 05:03:38;;;;;;;26.00;24.10;;;7.60;99.90;;;;;;5030712;28;20902;-81
2021/12/27 05:06:05;;;;;;;24.00;22.10;;;7.60;99.90;;;;;;5031349;28;20460;-84
2021/12/27 05:08:32;;;;;;;25.57;23.87;;;7.60;99.90;;;;;;5030338;28;20824;-78
2021/12/27 05:11:00;;;;;;;23.17;21.57;;;7.70;99.90;;;;;;5030186;28;20448;-79
2021/12/27 05:13:31;;;;;;;24.47;22.97;;;7.60;99.90;;;;;;5030365;28;20860;-79
2021/12/27 05:15:58;;;;;;;24.23;22.50;;;7.60;99.90;;;;;;5030363;28;20457;-81
2021/12/27 05:18:25;;;;;;;24.80;23.00;;;7.60;99.90;;;;;;5031119;28;20445;-84
2021/12/27 05:20:52;;;;;;;22.23;20.83;;;7.60;99.90;;;;;;5030614;28;20455;-86
2021/12/27 05:23:18;;;;;;;23.30;21.70;;;7.60;99.90;;;;;;5032337;28;20496;-83
2021/12/27 05:25:45;;;;;;;22.87;21.27;;;7.60;99.90;;;;;;5048576;28;20428;-84
2021/12/27 05:28:13;;;;;;;22.80;21.20;;;7.70;99.90;;;;;;5035596;28;20457;-85
2021/12/27 05:30:41;;;;;;;22.67;21.10;;;7.60;99.90;;;;;;5031443;28;20455;-83
2021/12/27 05:33:08;;;;;;;23.00;21.30;;;7.60;99.90;;;;;;5030420;28;20458;-78
2021/12/27 05:35:34;;;;;;;23.73;22.27;;;7.60;99.90;;;;;;5030703;28;20488;-84
2021/12/27 05:38:01;;;;;;;23.10;21.30;;;7.60;99.90;;;;;;5030706;28;20449;-84
2021/12/27 05:40:28;;;;;;;23.37;21.67;;;7.50;99.90;;;;;;5030098;28;20456;-80
2021/12/27 05:42:54;;;;;;;23.33;21.60;;;7.50;99.90;;;;;;5029728;28;20791;-79
2021/12/27 05:45:23;;;;;;;23.93;22.37;;;7.50;99.90;;;;;;5030286;28;20456;-79
2021/12/27 05:47:50;;;;;;;23.57;21.87;;;7.60;99.90;;;;;;5030406;28;20495;-79
2021/12/27 05:50:18;;;;;;;24.13;22.53;;;7.60;99.90;;;;;;5031573;28;20460;-81
2021/12/27 05:52:45;;;;;;;24.03;22.37;;;7.60;99.90;;;;;;5034386;28;20452;-82
2021/12/27 05:55:12;;;;;;;24.43;22.83;;;7.50;99.90;;;;;;5033932;28;20456;-81
2021/12/27 05:57:39;;;;;;;22.90;21.30;;;7.50;99.90;;;;;;5033433;28;20955;-81
2021/12/27 06:00:08;;;;;;;23.30;21.60;;;7.50;99.90;;;;;;5033404;28;20453;-79
2021/12/27 06:02:36;;;;;;;23.03;21.43;;;7.50;99.90;;;;;;5033446;28;20460;-79
2021/12/27 06:05:04;;;;;;;23.87;21.97;;;7.50;99.90;;;;;;5033235;28;20488;-77
2021/12/27 06:07:31;;;;;;;24.20;22.60;;;7.50;99.90;;;;;;5033143;28;20973;-82
2021/12/27 06:09:58;;;;;;;25.23;23.43;;;7.50;99.90;;;;;;5033510;28;20546;-82
2021/12/27 06:12:25;;;;;;;22.90;21.30;;;7.40;99.90;;;;;;5033868;28;20463;-84
2021/12/27 06:14:52;;;;;;;25.47;23.07;;;7.40;99.90;;;;;;5033644;28;20448;-83
2021/12/27 06:17:18;;;;;;;24.63;22.83;;;7.40;99.90;;;;;;5034078;28;20479;-84
2021/12/27 06:19:46;;;;;;;24.37;22.60;;;7.40;99.90;;;;;;5033460;28;20457;-83
2021/12/27 06:22:14;;;;;;;23.30;21.80;;;7.40;99.90;;;;;;5033458;28;20456;-83
2021/12/27 06:24:40;;;;;;;24.70;22.83;;;7.30;99.90;;;;;;5033150;28;20496;-83
2021/12/27 06:27:07;;;;;;;24.17;22.20;;;7.30;99.90;;;;;;5033285;28;20955;-85
2021/12/27 06:29:34;;;;;;;24.67;22.80;;;7.20;99.90;;;;;;5033591;28;20453;-84
2021/12/27 06:32:00;;;;;;;24.43;22.63;;;7.20;99.90;;;;;;5033013;28;20451;-83
2021/12/27 06:34:27;;;;;;;26.10;24.07;;;7.10;99.90;;;;;;5032646;28;20452;-80
2021/12/27 06:36:55;;;;;;;23.63;22.10;;;7.10;99.90;;;;;;5032762;28;20480;-80
2021/12/27 06:39:22;;;;;;;24.43;22.60;;;7.00;99.90;;;;;;5032615;28;20520;-79
2021/12/27 06:41:48;;;;;;;24.63;22.93;;;7.00;99.90;;;;;;5032447;28;20456;-78
2021/12/27 06:44:15;;;;;;;24.90;22.90;;;6.90;99.90;;;;;;5032577;28;20492;-78
2021/12/27 06:46:42;;;;;;;25.57;23.80;;;6.90;99.90;;;;;;5032411;28;20460;-79
2021/12/27 06:49:09;;;;;;;27.20;25.20;;;6.80;99.90;;;;;;5032633;28;20449;-80
2021/12/27 06:51:35;;;;;;;26.77;24.70;;;6.70;99.90;;;;;;5032513;28;20448;-80
2021/12/27 06:54:04;;;;;;;25.27;23.47;;;6.70;99.90;;;;;;5032481;28;20452;-80
2021/12/27 06:56:30;;;;;;;26.53;24.53;;;6.60;99.90;;;;;;5032466;28;20453;-79
2021/12/27 06:58:58;;;;;;;27.83;25.40;;;6.60;99.90;;;;;;5032283;28;20460;-81
2021/12/27 07:01:25;;;;;;;27.30;25.30;;;6.60;99.90;;;;;;5032017;28;20448;-80
2021/12/27 07:03:52;;;;;;;27.70;25.33;;;6.50;99.90;;;;;;5032135;28;20499;-81
2021/12/27 07:06:19;;;;;;;26.80;24.80;;;6.50;99.90;;;;;;5032116;28;20448;-80
2021/12/27 07:08:47;;;;;;;26.67;24.60;;;6.40;99.90;;;;;;5032226;28;20460;-79
2021/12/27 07:11:15;;;;;;;27.20;25.10;;;6.40;99.90;;;;;;5032319;28;20552;-81
2021/12/27 07:13:42;;;;;;;26.43;24.53;;;6.40;99.90;;;;;;5031862;28;20985;-81
2021/12/27 07:16:08;;;;;;;86.30;38.87;;;6.40;99.90;;;;;;5032038;28;20976;-80
2021/12/27 07:18:35;;;;;;;29.93;27.20;;;6.40;99.90;;;;;;5032303;28;20462;-80
2021/12/27 07:21:02;;;;;;;29.73;27.43;;;6.40;99.90;;;;;;5031833;28;20456;-80
2021/12/27 07:23:28;;;;;;;31.93;29.17;;;6.30;99.90;;;;;;5031658;28;20459;-80
2021/12/27 07:25:55;;;;;;;28.63;26.50;;;6.30;99.90;;;;;;5032180;28;20455;-80
2021/12/27 07:28:23;;;;;;;28.20;26.17;;;6.30;99.90;;;;;;5031810;28;20766;-81
2021/12/27 07:30:50;;;;;;;28.27;26.20;;;6.20;99.90;;;;;;5031764;28;20456;-80
2021/12/27 07:33:17;;;;;;;28.07;25.87;;;6.20;99.90;;;;;;5031948;28;20441;-83
2021/12/27 07:35:44;;;;;;;29.80;27.10;;;6.30;99.90;;;;;;5031309;28;20506;-80
2021/12/27 07:38:11;;;;;;;28.97;26.77;;;6.20;99.90;;;;;;5031828;28;20452;-84
2021/12/27 07:40:38;;;;;;;26.60;24.70;;;6.20;99.90;;;;;;5032134;28;20960;-84
2021/12/27 07:43:05;;;;;;;28.17;25.70;;;6.20;99.90;;;;;;5031701;28;20454;-84
2021/12/27 07:45:35;;;;;;;27.20;25.20;;;6.30;99.90;;;;;;5031945;28;20838;-82
2021/12/27 07:48:07;;;;;;;29.57;27.13;;;6.30;99.90;;;;;;5031923;28;20511;-81
2021/12/27 07:50:34;;;;;;;27.93;25.70;;;6.30;99.90;;;;;;5031731;28;20500;-82
2021/12/27 07:53:01;;;;;;;29.10;26.60;;;6.50;99.90;;;;;;5030843;28;20962;-83
2021/12/27 07:55:29;;;;;;;29.50;27.17;;;6.50;99.90;;;;;;5030738;28;20802;-81
2021/12/27 07:57:55;;;;;;;28.73;26.40;;;6.60;99.90;;;;;;5029907;28;20464;-81
2021/12/27 08:00:22;;;;;;;31.10;28.30;;;6.60;99.90;;;;;;5030234;28;20460;-80
2021/12/27 08:02:51;;;;;;;30.03;27.70;;;6.60;99.90;;;;;;5031109;28;20455;-81
2021/12/27 08:05:18;;;;;;;29.80;27.13;;;6.70;99.90;;;;;;5031373;28;20915;-81
2021/12/27 08:07:45;;;;;;;32.43;29.57;;;7.00;99.90;;;;;;5031410;28;20827;-81
2021/12/27 08:10:13;;;;;;;29.80;27.53;;;7.30;99.90;;;;;;5032387;28;20570;-84
2021/12/27 08:12:40;;;;;;;28.93;26.73;;;7.60;99.90;;;;;;5046955;28;20428;-84
2021/12/27 08:15:09;;;;;;;26.07;24.10;;;7.70;99.90;;;;;;5048291;28;20997;-84
2021/12/27 08:17:37;;;;;;;24.80;23.10;;;7.90;99.90;;;;;;5032203;28;20449;-84
2021/12/27 08:20:06;;;;;;;23.83;22.23;;;8.00;99.90;;;;;;5031899;28;20452;-84
2021/12/27 08:22:34;;;;;;;22.20;20.80;;;8.10;99.90;;;;;;5031217;28;20455;-83
2021/12/27 08:25:00;;;;;;;23.37;21.67;;;8.20;99.90;;;;;;5030977;28;20488;-82
2021/12/27 08:27:29;;;;;;;23.03;21.43;;;8.00;99.90;;;;;;5031055;28;20452;-83
2021/12/27 08:29:56;;;;;;;22.50;21.07;;;8.00;99.90;;;;;;5031085;28;20464;-83
2021/12/27 08:32:24;;;;;;;23.63;21.70;;;8.10;99.90;;;;;;5030944;28;20453;-82
2021/12/27 08:34:50;;;;;;;22.67;21.17;;;8.10;99.90;;;;;;5030809;28;20476;-81
2021/12/27 08:37:18;;;;;;;23.40;21.53;;;8.20;99.90;;;;;;5030025;28;20947;-81
2021/12/27 08:39:45;;;;;;;23.40;21.87;;;8.10;99.90;;;;;;5049357;28;20464;-81
2021/12/27 08:42:12;;;;;;;21.73;20.13;;;8.00;99.90;;;;;;5051285;28;20451;-80
2021/12/27 08:44:39;;;;;;;21.47;20.13;;;8.00;99.90;;;;;;5051032;28;20494;-81
2021/12/27 08:47:06;;;;;;;21.40;20.00;;;8.40;99.90;;;;;;5050772;28;20510;-81
2021/12/27 08:49:33;;;;;;;20.63;19.30;;;8.70;99.90;;;;;;5051080;28;20452;-80
2021/12/27 08:52:00;;;;;;;19.50;18.40;;;8.90;99.90;;;;;;5050781;28;20444;-80
2021/12/27 08:54:28;;;;;;;20.97;19.67;;;9.00;99.90;;;;;;5050880;28;20448;-78
2021/12/27 08:56:54;;;;;;;21.73;20.33;;;9.10;99.90;;;;;;5051540;28;20463;-77
2021/12/27 08:59:21;;;;;;;19.63;18.43;;;9.40;99.90;;;;;;5050564;28;20463;-77
2021/12/27 09:01:48;;;;;;;19.20;17.97;;;9.70;99.90;;;;;;5051129;28;20460;-80
2021/12/27 09:04:14;;;;;;;20.23;18.80;;;9.90;99.90;;;;;;5050841;28;21008;-78
2021/12/27 09:06:41;;;;;;;20.40;19.10;;;10.30;99.90;;;;;;5051099;28;20455;-79
2021/12/27 09:09:08;;;;;;;20.40;19.17;;;10.30;99.90;;;;;;5050724;28;20522;-79
2021/12/27 09:11:36;;;;;;;17.57;16.57;;;10.40;99.90;;;;;;5050640;28;20456;-79
2021/12/27 09:14:03;;;;;;;17.70;16.80;;;10.60;99.90;;;;;;5050828;28;20527;-78
2021/12/27 09:16:29;;;;;;;19.07;17.97;;;10.70;99.90;;;;;;5050700;28;20456;-79
2021/12/27 09:18:56;;;;;;;18.43;17.33;;;10.80;99.90;;;;;;5050486;28;20546;-76
2021/12/27 09:21:23;;;;;;;17.43;16.43;;;10.60;99.90;;;;;;5050596;28;20456;-77
2021/12/27 09:23:49;;;;;;;17.87;16.97;;;10.50;99.90;;;;;;5051295;28;20455;-76
2021/12/27 09:26:16;;;;;;;19.47;18.33;;;10.60;99.90;;;;;;5054536;28;20484;-77
2021/12/27 09:28:44;;;;;;;19.10;17.90;;;10.90;99.90;;;;;;5054045;28;20451;-77
2021/12/27 09:31:11;;;;;;;19.63;18.40;;;11.10;99.90;;;;;;5054421;28;20444;-78
2021/12/27 09:33:38;;;;;;;17.33;16.23;;;11.50;99.90;;;;;;5054517;28;20852;-76
2021/12/27 09:36:05;;;;;;;17.47;16.50;;;11.40;99.90;;;;;;5057224;28;20538;-82
2021/12/27 09:38:31;;;;;;;17.83;16.50;;;11.30;99.90;;;;;;5057643;28;20523;-76
2021/12/27 09:40:58;;;;;;;16.30;15.20;;;11.50;99.90;;;;;;5054051;28;20825;-76
2021/12/27 09:43:26;;;;;;;17.40;16.40;;;11.50;99.90;;;;;;5052091;28;20447;-75
2021/12/27 09:45:54;;;;;;;17.90;16.90;;;11.50;99.90;;;;;;5053565;28;20586;-74
2021/12/27 09:48:21;;;;;;;16.63;15.73;;;11.50;99.90;;;;;;5053591;28;20480;-75
2021/12/27 09:50:54;;;;;;;16.30;15.50;;;11.70;99.90;;;;;;5045711;28;20454;-75
2021/12/27 09:53:21;;;;;;;15.93;15.13;;;11.80;99.90;;;;;;5053612;28;20458;-75
2021/12/27 09:55:48;;;;;;;16.53;15.73;;;11.80;99.90;;;;;;5054026;28;20452;-76
2021/12/27 09:58:15;;;;;;;16.37;15.47;;;12.00;99.90;;;;;;5053791;28;20517;-75
2021/12/27 10:00:42;;;;;;;16.17;15.27;;;12.10;99.90;;;;;;5053354;28;20518;-74
2021/12/27 10:03:10;;;;;;;15.67;14.87;;;12.50;99.90;;;;;;5053094;28;20991;-76
2021/12/27 10:05:38;;;;;;;15.63;14.93;;;12.80;99.90;;;;;;5053051;28;20855;-75
2021/12/27 10:08:06;;;;;;;15.20;14.50;;;12.70;99.90;;;;;;5053082;28;20503;-76
2021/12/27 10:10:33;;;;;;;15.40;14.50;;;12.40;99.90;;;;;;5053057;28;20459;-77
2021/12/27 10:13:00;;;;;;;15.97;15.17;;;12.00;99.90;;;;;;5052898;28;20953;-75
2021/12/27 10:15:34;;;;;;;15.97;15.27;;;11.90;99.90;;;;;;5052986;28;20802;-74
2021/12/27 10:18:13;;;;;;;16.20;15.30;;;11.50;99.90;;;;;;5053003;28;20968;-77
2021/12/27 10:20:40;;;;;;;15.20;14.40;;;11.50;99.90;;;;;;5052665;28;20456;-76
2021/12/27 10:23:09;;;;;;;14.60;13.70;;;11.80;99.90;;;;;;5052780;28;20456;-77
2021/12/27 10:25:36;;;;;;;15.27;14.57;;;12.40;99.90;;;;;;5052729;28;21033;-76
2021/12/27 10:28:04;;;;;;;15.57;14.67;;;12.60;99.90;;;;;;5052880;28;20521;-77
2021/12/27 10:30:33;;;;;;;16.27;15.27;;;13.00;99.90;;;;;;5052771;28;20455;-77
2021/12/27 10:33:07;;;;;;;15.03;14.33;;;13.40;99.90;;;;;;5052554;28;20459;-78
2021/12/27 10:35:37;;;;;;;16.00;15.10;;;13.60;99.90;;;;;;5051996;28;20554;-77
2021/12/27 10:38:16;;;;;;;14.83;14.13;;;13.80;99.90;;;;;;5052602;28;20452;-77
2021/12/27 10:40:49;;;;;;;13.73;13.03;;;14.20;99.90;;;;;;5052454;28;20985;-77
2021/12/27 10:43:18;;;;;;;15.43;14.30;;;13.90;99.90;;;;;;5052548;28;20594;-76
2021/12/27 10:45:47;;;;;;;15.83;15.03;;;13.80;99.90;;;;;;5052364;28;20587;-76
2021/12/27 10:48:21;;;;;;;14.17;13.57;;;14.10;99.90;;;;;;5052214;28;20479;-76
2021/12/27 10:50:50;;;;;;;15.07;14.37;;;13.90;99.90;;;;;;5052465;28;20542;-75
2021/12/27 10:53:16;;;;;;;14.70;14.00;;;13.70;99.90;;;;;;5052294;28;20483;-75
2021/12/27 10:55:46;;;;;;;14.67;13.97;;;13.50;99.90;;;;;;5052002;28;20455;-74
2021/12/27 10:58:18;;;;;;;15.90;14.90;;;13.70;99.90;;;;;;5052241;28;20452;-73
2021/12/27 11:00:46;;;;;;;14.70;14.10;;;13.60;99.90;;;;;;5052181;28;20455;-74
2021/12/27 11:03:28;;;;;;;15.13;14.33;;;13.20;99.90;;;;;;5051901;28;20452;-74
2021/12/27 11:05:57;;;;;;;14.60;13.90;;;13.50;99.90;;;;;;5051798;28;20476;-74
2021/12/27 11:08:24;;;;;;;14.03;13.43;;;13.40;99.90;;;;;;5051945;28;20448;-75
2021/12/27 11:10:51;;;;;;;15.00;14.30;;;13.30;99.90;;;;;;5051728;28;20455;-74
2021/12/27 11:13:18;;;;;;;15.23;14.53;;;13.20;99.90;;;;;;5051946;28;20478;-75
2021/12/27 11:15:45;;;;;;;15.63;14.73;;;13.30;99.90;;;;;;5052071;28;20448;-74
2021/12/27 11:18:14;;;;;;;15.63;14.83;;;13.50;99.90;;;;;;5051774;28;20452;-74
2021/12/27 11:20:45;;;;;;;14.87;14.07;;;14.10;99.90;;;;;;5051717;28;20516;-74
2021/12/27 11:23:14;;;;;;;15.17;14.47;;;14.10;99.90;;;;;;5051490;28;20541;-73
2021/12/27 11:25:43;;;;;;;15.50;14.60;;;14.00;99.90;;;;;;5051288;28;20896;-75
2021/12/27 11:28:27;;;;;;;15.40;14.70;;;14.00;99.90;;;;;;5051463;28;20456;-74
2021/12/27 11:30:56;;;;;;;15.80;15.07;;;13.00;99.90;;;;;;5051430;28;20482;-74
2021/12/27 11:33:24;;;;;;;15.67;14.90;;;12.20;99.90;;;;;;5051542;28;20513;-75
2021/12/27 11:36:10;;;;;;;16.27;15.43;;;11.60;99.90;;;;;;5051417;28;20823;-75
2021/12/27 11:38:42;;;;;;;15.40;14.60;;;11.20;99.90;;;;;;5051527;28;20448;-74
2021/12/27 11:41:28;;;;;;;14.87;14.10;;;11.10;99.90;;;;;;5051328;28;20459;-74
2021/12/27 11:43:56;;;;;;;15.60;14.80;;;11.10;99.90;;;;;;5051343;28;20455;-74
2021/12/27 11:46:24;;;;;;;15.10;14.20;;;11.00;99.90;;;;;;5050993;28;20570;-75
2021/12/27 11:48:54;;;;;;;15.10;14.30;;;11.00;99.90;;;;;;5050087;28;20486;-75
2021/12/27 11:51:31;;;;;;;15.00;14.20;;;11.10;99.90;;;;;;5051079;28;20451;-75
2021/12/27 11:54:01;;;;;;;14.43;13.73;;;11.20;99.90;;;;;;5050959;28;20961;-74
2021/12/27 11:56:48;;;;;;;14.77;14.07;;;11.20;99.90;;;;;;5050875;28;20944;-74
2021/12/27 11:59:31;;;;;;;15.90;15.10;;;11.20;99.90;;;;;;5050948;28;20451;-74
2021/12/27 12:02:00;;;;;;;16.23;15.30;;;11.40;99.90;;;;;;5049124;28;20529;-74
2021/12/27 12:04:40;;;;;;;15.73;14.93;;;11.50;99.90;;;;;;5050801;28;20456;-75
2021/12/27 12:07:07;;;;;;;15.87;15.07;;;11.50;99.90;;;;;;5050792;28;20523;-74
2021/12/27 12:09:45;;;;;;;14.47;13.77;;;11.60;99.90;;;;;;5050894;28;21144;-75
2021/12/27 12:12:13;;;;;;;14.97;14.07;;;11.50;99.90;;;;;;5050879;28;20480;-75
2021/12/27 12:14:40;;;;;;;15.50;14.70;;;11.60;99.90;;;;;;5050801;28;20510;-75
2021/12/27 12:17:09;;;;;;;15.77;14.90;;;11.50;99.90;;;;;;5050839;28;20452;-74
2021/12/27 12:19:42;;;;;;;15.20;14.40;;;11.40;99.90;;;;;;5050694;28;20451;-75
2021/12/27 12:22:24;;;;;;;13.50;12.63;;;11.40;99.90;;;;;;5050614;28;20520;-74
2021/12/27 12:25:06;;;;;;;14.47;13.70;;;11.30;99.90;;;;;;5049807;28;20455;-74
2021/12/27 12:27:34;;;;;;;14.67;13.93;;;11.30;99.90;;;;;;5050744;28;20459;-75
2021/12/27 12:30:00;;;;;;;14.27;13.67;;;11.20;99.90;;;;;;5050614;28;20448;-75
2021/12/27 12:32:27;;;;;;;15.00;14.20;;;11.10;99.90;;;;;;5050285;28;20486;-75
2021/12/27 12:34:54;;;;;;;15.20;14.13;;;11.10;99.90;;;;;;5050480;28;20987;-74
2021/12/27 12:37:20;;;;;;;15.30;14.50;;;11.10;99.90;;;;;;5050639;28;20438;-74